Time;durP1;ratioP1;P1;durP2;ratioP2;P2;SDS_P1;SDS_P2;PMS_P1;PMS_P2;Temp;Humidity;BMP_temperature;BMP_pressure;BME280_temperature;BME280_humidity;BME280_pressure;Samples;Min_cycle;Max_cycle;Signal;HPM_P1;HPM_P2
2023/07/16 00:01:33;;;;;;;1.83;0.63;;;22.10;91.70;;;;;;5016328;28;20077;-80
2023/07/16 00:03:59;;;;;;;2.97;1.02;;;22.20;92.00;;;;;;5034276;28;20034;-80
2023/07/16 00:06:24;;;;;;;2.83;0.70;;;22.10;91.90;;;;;;5034332;28;20559;-80
2023/07/16 00:08:50;;;;;;;4.97;1.20;;;22.20;91.30;;;;;;5034390;28;20026;-79
2023/07/16 00:11:16;;;;;;;5.10;1.25;;;22.10;90.40;;;;;;5016508;28;20113;-80
2023/07/16 00:13:46;;;;;;;3.30;1.00;;;22.00;89.70;;;;;;5033861;28;20152;-79
2023/07/16 00:16:12;;;;;;;3.60;0.77;;;21.90;89.90;;;;;;5017305;28;20025;-78
2023/07/16 00:18:37;;;;;;;3.05;1.10;;;21.80;90.30;;;;;;5034110;28;20025;-80
2023/07/16 00:21:03;;;;;;;2.58;0.82;;;21.70;90.40;;;;;;5033775;28;20025;-80
2023/07/16 00:23:29;;;;;;;2.88;1.02;;;21.80;90.90;;;;;;5034183;28;20036;-79
2023/07/16 00:25:54;;;;;;;2.50;0.63;;;21.80;91.10;;;;;;5033972;28;20030;-79
2023/07/16 00:28:20;;;;;;;4.15;0.63;;;21.90;91.30;;;;;;5016013;28;20389;-79
2023/07/16 00:30:46;;;;;;;2.30;0.70;;;21.90;91.40;;;;;;5033170;28;20030;-79
2023/07/16 00:33:11;;;;;;;3.95;1.00;;;21.90;91.60;;;;;;5015788;28;20033;-79
2023/07/16 00:35:37;;;;;;;3.03;0.55;;;22.00;91.80;;;;;;5033291;28;20066;-79
2023/07/16 00:38:02;;;;;;;4.15;1.08;;;22.00;91.90;;;;;;5033664;28;20030;-78
2023/07/16 00:40:28;;;;;;;4.43;0.90;;;22.10;91.80;;;;;;5015956;28;20029;-79
2023/07/16 00:42:54;;;;;;;4.57;0.80;;;22.10;91.80;;;;;;5033623;28;20030;-79
2023/07/16 00:45:19;;;;;;;2.35;0.55;;;22.10;92.00;;;;;;5016257;28;20381;-80
2023/07/16 00:47:46;;;;;;;1.95;0.80;;;22.20;92.10;;;;;;5016191;28;20034;-79
2023/07/16 00:50:12;;;;;;;3.08;0.93;;;22.10;92.10;;;;;;5033647;28;20103;-79
2023/07/16 00:52:39;;;;;;;5.32;1.20;;;22.10;92.10;;;;;;5033501;28;20029;-79
2023/07/16 00:55:06;;;;;;;3.25;1.25;;;22.10;92.10;;;;;;5015517;28;20038;-81
2023/07/16 00:57:33;;;;;;;5.93;1.35;;;22.00;92.30;;;;;;5033578;28;20033;-80
2023/07/16 00:59:59;;;;;;;7.32;1.00;;;22.00;92.40;;;;;;5033405;28;20088;-80
2023/07/16 01:02:25;;;;;;;3.95;1.08;;;22.00;92.10;;;;;;5033080;28;20402;-82
2023/07/16 01:04:51;;;;;;;7.85;1.55;;;21.90;92.10;;;;;;4999994;28;20037;-82
2023/07/16 01:07:19;;;;;;;3.50;1.40;;;21.90;91.70;;;;;;5033206;28;20029;-80
2023/07/16 01:09:45;;;;;;;6.32;1.65;;;21.70;90.90;;;;;;5033337;28;20017;-80
2023/07/16 01:12:12;;;;;;;6.78;1.35;;;21.60;90.70;;;;;;4999224;28;20415;-80
2023/07/16 01:14:40;;;;;;;4.63;1.48;;;21.50;90.10;;;;;;5015718;28;20496;-78
2023/07/16 01:17:06;;;;;;;7.15;1.70;;;21.30;89.90;;;;;;5032806;28;20030;-79
2023/07/16 01:19:33;;;;;;;6.55;1.88;;;21.20;90.00;;;;;;5032817;28;20041;-80
2023/07/16 01:22:24;;;;;;;7.07;1.80;;;21.20;89.60;;;;;;5032909;28;20029;-79
2023/07/16 01:25:14;;;;;;;5.65;1.50;;;21.10;89.60;;;;;;5033621;28;20044;-78
2023/07/16 01:28:08;;;;;;;5.55;1.20;;;21.10;90.10;;;;;;5032926;28;20068;-78
2023/07/16 01:30:37;;;;;;;7.45;1.52;;;21.10;90.60;;;;;;5015539;28;20045;-78
2023/07/16 01:33:04;;;;;;;6.07;2.00;;;21.00;90.70;;;;;;5032701;28;20030;-79
2023/07/16 01:35:30;;;;;;;7.55;1.40;;;21.00;90.80;;;;;;5032585;28;20057;-79
2023/07/16 01:37:56;;;;;;;3.42;1.40;;;20.90;90.90;;;;;;5032742;28;20100;-78
2023/07/16 01:40:21;;;;;;;4.97;1.27;;;20.80;91.30;;;;;;5033055;28;20059;-79
2023/07/16 01:42:47;;;;;;;10.82;1.95;;;20.70;91.20;;;;;;5016103;28;20517;-80
2023/07/16 01:45:12;;;;;;;7.00;1.42;;;20.70;91.00;;;;;;5019192;28;20044;-79
2023/07/16 01:48:05;;;;;;;7.80;1.50;;;20.60;90.60;;;;;;5037366;28;20152;-79
2023/07/16 01:50:30;;;;;;;9.75;1.63;;;20.60;90.90;;;;;;5036854;28;20025;-78
2023/07/16 01:52:56;;;;;;;7.28;1.88;;;20.70;90.70;;;;;;5019005;28;20040;-78
2023/07/16 01:55:22;;;;;;;6.88;1.50;;;20.60;90.40;;;;;;5036686;28;20029;-78
2023/07/16 01:57:47;;;;;;;7.15;1.48;;;20.60;90.50;;;;;;5036690;28;20033;-79
2023/07/16 02:00:13;;;;;;;5.82;1.50;;;20.70;90.50;;;;;;5036855;28;20026;-78
2023/07/16 02:02:39;;;;;;;5.72;1.50;;;20.70;90.70;;;;;;5036616;28;20034;-79
2023/07/16 02:05:05;;;;;;;7.93;1.90;;;20.70;90.50;;;;;;5036347;28;20048;-80
2023/07/16 02:07:31;;;;;;;4.65;1.30;;;20.70;89.40;;;;;;5036481;28;20030;-79
2023/07/16 02:09:56;;;;;;;10.73;2.00;;;20.60;89.70;;;;;;5036267;28;20084;-79
2023/07/16 02:12:22;;;;;;;5.70;1.80;;;20.60;89.60;;;;;;5018883;28;20084;-80
2023/07/16 02:14:47;;;;;;;5.88;1.60;;;20.50;88.90;;;;;;5036047;28;20036;-78
2023/07/16 02:17:13;;;;;;;3.28;1.55;;;20.50;89.60;;;;;;5036357;28;20482;-78
2023/07/16 02:19:39;;;;;;;5.95;1.52;;;20.50;90.20;;;;;;5018533;28;20033;-79
2023/07/16 02:22:04;;;;;;;3.10;1.30;;;20.50;90.40;;;;;;5018410;28;20095;-79
2023/07/16 02:24:30;;;;;;;4.20;1.25;;;20.40;90.50;;;;;;5036223;28;20037;-79
2023/07/16 02:26:56;;;;;;;5.80;1.45;;;20.50;90.70;;;;;;5036167;28;20025;-79
2023/07/16 02:29:21;;;;;;;5.80;1.25;;;20.40;90.70;;;;;;5036126;28;20029;-79
2023/07/16 02:31:48;;;;;;;8.52;1.35;;;20.40;90.80;;;;;;5036129;28;20485;-80
2023/07/16 02:34:14;;;;;;;4.63;1.33;;;20.40;90.10;;;;;;5036231;28;20128;-80
2023/07/16 02:36:40;;;;;;;7.22;1.50;;;20.40;90.50;;;;;;5035871;28;20061;-80
2023/07/16 02:39:05;;;;;;;4.10;1.33;;;20.40;90.70;;;;;;5035830;28;20048;-80
2023/07/16 02:41:31;;;;;;;6.38;1.65;;;20.40;90.60;;;;;;5035628;28;20033;-81
2023/07/16 02:44:01;;;;;;;5.95;1.42;;;20.40;90.30;;;;;;5035917;28;20040;-79
2023/07/16 02:46:27;;;;;;;4.10;1.25;;;20.40;90.50;;;;;;5035764;28;20037;-80
2023/07/16 02:48:52;;;;;;;4.78;1.60;;;20.40;90.40;;;;;;5018022;28;20026;-79
2023/07/16 02:51:18;;;;;;;6.38;1.50;;;20.40;90.30;;;;;;5035646;28;20038;-80
2023/07/16 02:53:44;;;;;;;8.25;1.27;;;20.40;90.40;;;;;;5018031;28;20037;-80
2023/07/16 02:56:09;;;;;;;6.10;1.15;;;20.40;90.90;;;;;;5035658;28;20106;-80
2023/07/16 02:58:35;;;;;;;5.22;2.08;;;20.30;90.80;;;;;;5017937;28;20044;-80
2023/07/16 03:01:00;;;;;;;5.50;1.85;;;20.30;90.90;;;;;;5035896;28;20045;-79
2023/07/16 03:03:26;;;;;;;4.20;1.30;;;20.30;90.90;;;;;;5035803;28;20434;-80
2023/07/16 03:05:51;;;;;;;5.00;1.60;;;20.40;91.10;;;;;;5035211;28;20040;-80
2023/07/16 03:08:17;;;;;;;7.57;1.70;;;20.30;91.10;;;;;;5035645;28;20029;-79
2023/07/16 03:10:43;;;;;;;3.53;1.10;;;20.30;91.10;;;;;;5035057;28;20034;-81
2023/07/16 03:13:08;;;;;;;5.28;1.35;;;20.30;91.20;;;;;;5035103;28;20203;-81
2023/07/16 03:15:34;;;;;;;4.68;1.40;;;20.30;91.40;;;;;;5034976;28;20041;-81
2023/07/16 03:17:59;;;;;;;6.28;1.40;;;20.30;91.60;;;;;;5017477;28;20084;-81
2023/07/16 03:20:25;;;;;;;4.97;1.10;;;20.20;91.80;;;;;;5035427;28;20037;-81
2023/07/16 03:22:51;;;;;;;5.88;1.17;;;20.20;91.90;;;;;;5035426;28;20037;-81
2023/07/16 03:25:16;;;;;;;6.40;1.60;;;20.20;92.00;;;;;;5034873;28;20036;-80
2023/07/16 03:27:42;;;;;;;7.32;1.67;;;20.10;92.10;;;;;;5035484;28;20115;-82
2023/07/16 03:30:08;;;;;;;7.70;1.45;;;20.10;91.90;;;;;;5034872;28;20030;-82
2023/07/16 03:32:33;;;;;;;10.02;1.90;;;20.10;92.10;;;;;;5017254;28;20553;-83
2023/07/16 03:34:59;;;;;;;5.20;1.88;;;20.10;92.20;;;;;;5034544;28;20128;-81
2023/07/16 03:37:25;;;;;;;5.40;1.80;;;20.00;91.80;;;;;;5017135;28;20057;-81
2023/07/16 03:39:51;;;;;;;7.75;1.60;;;19.90;91.90;;;;;;5034801;28;20030;-81
2023/07/16 03:42:17;;;;;;;6.22;1.80;;;19.90;91.90;;;;;;5034671;28;20461;-82
2023/07/16 03:44:44;;;;;;;6.40;1.63;;;19.70;92.10;;;;;;5034699;28;20113;-81
2023/07/16 03:47:10;;;;;;;5.80;1.58;;;19.70;91.80;;;;;;5034428;28;20037;-81
2023/07/16 03:49:35;;;;;;;5.47;1.75;;;19.70;91.80;;;;;;5034409;28;20037;-81
2023/07/16 03:52:01;;;;;;;5.63;1.73;;;19.70;92.00;;;;;;5034808;28;20033;-81
2023/07/16 03:54:27;;;;;;;5.88;1.80;;;19.70;91.90;;;;;;5016714;28;20045;-80
2023/07/16 03:56:52;;;;;;;5.55;1.85;;;19.70;91.80;;;;;;5034566;28;20029;-81
2023/07/16 03:59:18;;;;;;;5.57;1.73;;;19.70;91.60;;;;;;5034211;28;20025;-81
2023/07/16 04:01:43;;;;;;;9.05;2.60;;;19.60;92.10;;;;;;5016489;28;20025;-81
2023/07/16 04:04:09;;;;;;;8.60;2.20;;;19.60;91.50;;;;;;5016915;28;20135;-82
2023/07/16 04:06:34;;;;;;;5.53;1.90;;;19.60;91.20;;;;;;4999845;28;20647;-81
2023/07/16 04:09:00;;;;;;;4.00;1.65;;;19.50;91.00;;;;;;5034277;28;20034;-81
2023/07/16 04:11:26;;;;;;;7.80;2.20;;;19.50;91.30;;;;;;5034373;28;20099;-81
2023/07/16 04:13:51;;;;;;;6.00;2.05;;;19.50;91.40;;;;;;5034028;28;20493;-81
2023/07/16 04:16:17;;;;;;;6.50;2.17;;;19.50;91.60;;;;;;5016859;28;20033;-81
2023/07/16 04:18:42;;;;;;;6.85;2.10;;;19.60;91.90;;;;;;5034521;28;20041;-80
2023/07/16 04:21:08;;;;;;;3.92;1.67;;;19.50;92.10;;;;;;5034061;28;20026;-81
2023/07/16 04:23:34;;;;;;;3.75;1.52;;;19.50;92.40;;;;;;5033743;28;20037;-81
2023/07/16 04:25:59;;;;;;;3.60;1.50;;;19.50;92.70;;;;;;5034176;28;20033;-81
2023/07/16 04:28:25;;;;;;;4.75;1.90;;;19.50;92.80;;;;;;5034185;28;20064;-81
2023/07/16 04:30:50;;;;;;;8.20;2.15;;;19.50;92.90;;;;;;5034103;28;20044;-81
2023/07/16 04:33:16;;;;;;;6.93;2.20;;;19.50;92.90;;;;;;5016233;28;20032;-81
2023/07/16 04:35:42;;;;;;;8.48;2.28;;;19.50;93.10;;;;;;5033864;28;20053;-80
2023/07/16 04:38:08;;;;;;;5.22;1.92;;;19.40;93.00;;;;;;5033746;28;20086;-81
2023/07/16 04:40:33;;;;;;;7.88;2.58;;;19.40;92.90;;;;;;5033945;28;20458;-81
2023/07/16 04:42:59;;;;;;;7.05;1.92;;;19.30;92.70;;;;;;5033630;28;20033;-81
2023/07/16 04:45:25;;;;;;;7.05;2.35;;;19.20;93.00;;;;;;5033598;28;20091;-81
2023/07/16 04:47:50;;;;;;;9.02;2.38;;;19.10;92.60;;;;;;5015747;28;20547;-81
2023/07/16 04:50:16;;;;;;;12.15;2.60;;;19.10;92.60;;;;;;5033764;28;20454;-80
2023/07/16 04:52:41;;;;;;;7.20;2.58;;;19.10;92.30;;;;;;5033512;28;20045;-80
2023/07/16 04:55:07;;;;;;;7.88;2.63;;;19.10;92.20;;;;;;5015227;28;20041;-81
2023/07/16 04:57:34;;;;;;;10.30;3.00;;;19.10;92.00;;;;;;5033357;28;20041;-82
2023/07/16 04:59:59;;;;;;;8.02;2.75;;;19.20;91.70;;;;;;5033380;28;20108;-81
2023/07/16 05:02:25;;;;;;;6.47;2.40;;;19.20;91.70;;;;;;5015929;28;20124;-80
2023/07/16 05:04:51;;;;;;;11.00;2.97;;;19.30;91.70;;;;;;5033499;28;20385;-82
2023/07/16 05:07:16;;;;;;;10.40;2.72;;;19.30;91.20;;;;;;5032987;28;20442;-81
2023/07/16 05:09:43;;;;;;;8.05;2.92;;;19.30;90.90;;;;;;5033249;28;20108;-81
2023/07/16 05:12:09;;;;;;;10.20;2.83;;;19.30;90.80;;;;;;5033076;28;20060;-81
2023/07/16 05:14:47;;;;;;;8.27;3.00;;;19.30;90.90;;;;;;5033093;28;20064;-81
2023/07/16 05:17:13;;;;;;;12.10;3.20;;;19.30;90.50;;;;;;5032928;28;20033;-82
2023/07/16 05:19:39;;;;;;;7.45;3.08;;;19.30;90.70;;;;;;5033174;28;20025;-82
2023/07/16 05:22:05;;;;;;;8.40;3.17;;;19.20;90.60;;;;;;5033122;28;20213;-82
2023/07/16 05:24:32;;;;;;;10.20;2.92;;;19.20;90.60;;;;;;5015719;28;20045;-82
2023/07/16 05:26:58;;;;;;;5.85;2.28;;;19.20;90.90;;;;;;5033602;28;20029;-81
2023/07/16 05:29:24;;;;;;;8.40;2.95;;;19.20;90.90;;;;;;5015181;28;20029;-81
2023/07/16 05:31:50;;;;;;;6.88;2.97;;;19.20;91.10;;;;;;5033108;28;20025;-81
2023/07/16 05:34:16;;;;;;;6.07;2.78;;;19.20;91.00;;;;;;5033537;28;20041;-81
2023/07/16 05:36:42;;;;;;;8.27;2.80;;;19.20;90.70;;;;;;5033064;28;20050;-81
2023/07/16 05:39:08;;;;;;;9.07;2.70;;;19.30;90.50;;;;;;5032982;28;20036;-83
2023/07/16 05:41:34;;;;;;;9.80;2.85;;;19.30;90.40;;;;;;5015294;28;20022;-82
2023/07/16 05:43:59;;;;;;;10.18;2.88;;;19.20;90.10;;;;;;5032800;28;20536;-81
2023/07/16 05:46:25;;;;;;;11.25;2.90;;;19.20;90.10;;;;;;5032872;28;20080;-82
2023/07/16 05:48:51;;;;;;;6.47;2.85;;;19.20;90.50;;;;;;5032886;28;20083;-81
2023/07/16 05:51:17;;;;;;;8.23;3.17;;;19.20;90.30;;;;;;5033075;28;20065;-82
2023/07/16 05:53:43;;;;;;;9.23;3.53;;;19.30;90.20;;;;;;5032639;28;20062;-81
2023/07/16 05:56:08;;;;;;;9.90;3.63;;;19.20;90.10;;;;;;5015179;28;20113;-83
2023/07/16 05:58:34;;;;;;;9.82;3.20;;;19.30;90.20;;;;;;5032720;28;20386;-82
2023/07/16 06:00:59;;;;;;;9.35;3.63;;;19.30;90.20;;;;;;5033015;28;20460;-82
2023/07/16 06:03:25;;;;;;;13.43;3.78;;;19.30;90.00;;;;;;5014960;28;20041;-82
2023/07/16 06:05:51;;;;;;;10.95;3.20;;;19.30;89.70;;;;;;5015123;28;20087;-82
2023/07/16 06:08:16;;;;;;;8.25;3.22;;;19.30;89.40;;;;;;5032715;28;20315;-82
2023/07/16 06:10:42;;;;;;;8.43;3.10;;;19.30;88.90;;;;;;5032559;28;20029;-81
2023/07/16 06:13:07;;;;;;;10.82;3.83;;;19.30;88.50;;;;;;5032592;28;20121;-82
2023/07/16 06:15:33;;;;;;;7.55;3.50;;;19.40;89.10;;;;;;4998511;28;20454;-82
2023/07/16 06:17:59;;;;;;;10.32;3.60;;;19.40;89.40;;;;;;5032749;28;20053;-82
2023/07/16 06:20:24;;;;;;;7.00;3.50;;;19.40;89.10;;;;;;5032606;28;20033;-82
2023/07/16 06:22:50;;;;;;;9.05;3.63;;;19.40;88.70;;;;;;5014743;28;20036;-80
2023/07/16 06:25:16;;;;;;;9.15;4.25;;;19.40;89.30;;;;;;5032535;28;20037;-83
2023/07/16 06:27:41;;;;;;;10.57;3.70;;;19.50;89.00;;;;;;5032806;28;20026;-82
2023/07/16 06:30:07;;;;;;;9.25;3.80;;;19.50;87.70;;;;;;5035439;28;20079;-82
2023/07/16 06:32:33;;;;;;;9.68;3.60;;;19.50;87.50;;;;;;5035880;28;20029;-81
2023/07/16 06:34:58;;;;;;;8.00;3.50;;;19.50;86.90;;;;;;5018178;28;20045;-82
2023/07/16 06:37:25;;;;;;;9.70;4.00;;;19.60;87.40;;;;;;5036184;28;20053;-82
2023/07/16 06:39:51;;;;;;;11.48;4.43;;;19.70;88.00;;;;;;5036050;28;20030;-82
2023/07/16 06:42:16;;;;;;;11.35;4.25;;;19.70;87.40;;;;;;5035859;28;20036;-81
2023/07/16 06:44:42;;;;;;;8.80;4.28;;;19.70;86.80;;;;;;5018598;28;20453;-80
2023/07/16 06:47:08;;;;;;;9.50;3.80;;;19.70;87.20;;;;;;5035531;28;20457;-81
2023/07/16 06:49:33;;;;;;;10.10;4.00;;;19.80;87.70;;;;;;5035731;28;20108;-81
2023/07/16 06:52:02;;;;;;;8.43;3.75;;;19.90;86.80;;;;;;5018305;28;20033;-81
2023/07/16 06:54:27;;;;;;;9.38;4.03;;;19.90;86.50;;;;;;5035527;28;20077;-82
2023/07/16 06:56:53;;;;;;;10.02;3.75;;;19.90;86.30;;;;;;5035752;28;20111;-81
2023/07/16 06:59:19;;;;;;;7.35;3.85;;;19.90;85.70;;;;;;5035345;28;20030;-81
2023/07/16 07:01:44;;;;;;;7.00;3.60;;;19.90;86.30;;;;;;5035461;28;20037;-80
2023/07/16 07:04:10;;;;;;;12.15;4.35;;;20.00;87.70;;;;;;5035075;28;20045;-81
2023/07/16 07:06:35;;;;;;;7.78;3.72;;;19.90;86.30;;;;;;5018290;28;20364;-82
2023/07/16 07:09:01;;;;;;;9.45;4.18;;;20.00;86.20;;;;;;5017672;28;20034;-81
2023/07/16 07:11:27;;;;;;;7.03;3.92;;;20.00;86.30;;;;;;5035186;28;20029;-80
2023/07/16 07:13:52;;;;;;;7.82;4.00;;;20.10;86.40;;;;;;5035169;28;20033;-83
2023/07/16 07:16:19;;;;;;;9.63;4.03;;;20.20;86.10;;;;;;5035253;28;20096;-79
2023/07/16 07:18:45;;;;;;;9.40;4.28;;;20.20;85.30;;;;;;5017437;28;20125;-80
2023/07/16 07:21:10;;;;;;;6.30;4.10;;;20.20;86.70;;;;;;5034871;28;20061;-80
2023/07/16 07:23:36;;;;;;;7.78;4.03;;;20.30;87.10;;;;;;5034770;28;20029;-81
2023/07/16 07:26:01;;;;;;;8.88;4.40;;;20.30;86.90;;;;;;5035007;28;20068;-81
2023/07/16 07:28:28;;;;;;;10.88;4.38;;;20.30;85.70;;;;;;5034924;28;20029;-80
2023/07/16 07:30:54;;;;;;;11.90;3.88;;;20.30;85.10;;;;;;5035114;28;20029;-80
2023/07/16 07:33:19;;;;;;;8.23;4.28;;;20.30;85.80;;;;;;5034966;28;20088;-80
2023/07/16 07:35:45;;;;;;;9.27;4.30;;;20.40;86.10;;;;;;5016945;28;20057;-81
2023/07/16 07:38:11;;;;;;;10.05;4.60;;;20.40;85.90;;;;;;5035000;28;20466;-81
2023/07/16 07:40:36;;;;;;;9.98;4.57;;;20.40;84.90;;;;;;5033922;28;20025;-82
2023/07/16 07:43:02;;;;;;;11.50;4.72;;;20.40;84.90;;;;;;5035042;28;20056;-81
2023/07/16 07:45:28;;;;;;;9.05;4.40;;;20.40;85.10;;;;;;5035128;28;20095;-80
2023/07/16 07:47:53;;;;;;;9.23;4.55;;;20.40;85.30;;;;;;5034779;28;20029;-81
2023/07/16 07:50:19;;;;;;;13.60;5.10;;;20.50;85.30;;;;;;5034739;28;20033;-81
2023/07/16 07:52:45;;;;;;;10.38;5.00;;;20.50;85.40;;;;;;5034994;28;20025;-81
2023/07/16 07:55:11;;;;;;;9.52;4.32;;;20.50;84.90;;;;;;5000540;28;20034;-83
2023/07/16 07:57:36;;;;;;;9.70;4.70;;;20.60;85.40;;;;;;5017008;28;20124;-81
2023/07/16 08:00:03;;;;;;;9.90;4.30;;;20.60;84.10;;;;;;5017530;28;20056;-81
2023/07/16 08:02:28;;;;;;;10.25;4.82;;;20.60;84.50;;;;;;5035016;28;20079;-82
2023/07/16 08:04:55;;;;;;;10.63;4.40;;;20.60;84.20;;;;;;5034721;28;20041;-82
2023/07/16 08:07:22;;;;;;;11.55;5.35;;;20.60;84.70;;;;;;5034322;28;20037;-82
2023/07/16 08:09:47;;;;;;;9.38;3.95;;;20.50;84.30;;;;;;5034336;28;20041;-81
2023/07/16 08:12:14;;;;;;;16.67;4.97;;;20.60;84.90;;;;;;5034422;28;20452;-82
2023/07/16 08:14:41;;;;;;;7.97;4.10;;;20.70;84.20;;;;;;5033990;28;20029;-82
2023/07/16 08:17:07;;;;;;;10.30;4.75;;;20.70;85.00;;;;;;5016788;28;20075;-82
2023/07/16 08:19:32;;;;;;;10.50;4.47;;;20.80;84.30;;;;;;5016691;28;20053;-80
2023/07/16 08:21:58;;;;;;;13.15;4.45;;;20.90;84.20;;;;;;5033986;28;20112;-82
2023/07/16 08:24:25;;;;;;;11.48;4.45;;;20.90;83.90;;;;;;5033909;28;20068;-82
2023/07/16 08:26:51;;;;;;;12.50;4.30;;;20.90;83.90;;;;;;5033804;28;20492;-81
2023/07/16 08:29:16;;;;;;;11.02;4.65;;;21.00;84.30;;;;;;5016305;28;20025;-82
2023/07/16 08:31:42;;;;;;;10.70;4.63;;;21.00;83.70;;;;;;5034202;28;20075;-80
2023/07/16 08:34:08;;;;;;;7.82;4.13;;;20.80;82.70;;;;;;5016018;28;20038;-81
2023/07/16 08:36:33;;;;;;;9.60;4.63;;;20.70;83.50;;;;;;5033716;28;20168;-80
2023/07/16 08:38:59;;;;;;;9.15;4.28;;;20.50;83.40;;;;;;5016687;28;20386;-81
2023/07/16 08:41:25;;;;;;;7.40;4.00;;;20.50;84.80;;;;;;5033850;28;20129;-80
2023/07/16 08:43:52;;;;;;;9.50;4.45;;;20.50;85.50;;;;;;5033461;28;20033;-81
2023/07/16 08:46:18;;;;;;;12.32;4.38;;;20.70;85.10;;;;;;5033794;28;20057;-82
2023/07/16 08:48:45;;;;;;;10.35;4.43;;;20.80;85.00;;;;;;5033446;28;20415;-81
2023/07/16 08:51:14;;;;;;;9.07;4.50;;;21.00;84.10;;;;;;5033746;28;20026;-82
2023/07/16 08:53:40;;;;;;;9.07;4.00;;;21.10;83.60;;;;;;5033371;28;20031;-81
2023/07/16 08:56:06;;;;;;;8.43;4.10;;;21.10;83.70;;;;;;5033943;28;20037;-80
2023/07/16 08:58:32;;;;;;;12.05;5.13;;;21.20;83.70;;;;;;5033811;28;20112;-82
2023/07/16 09:01:00;;;;;;;9.50;4.35;;;21.30;84.40;;;;;;5034047;28;20048;-82
2023/07/16 09:03:26;;;;;;;8.48;4.10;;;21.40;84.40;;;;;;5033400;28;20475;-81
2023/07/16 09:05:53;;;;;;;14.15;5.10;;;21.50;84.00;;;;;;5034027;28;20053;-80
2023/07/16 09:08:18;;;;;;;10.75;5.22;;;21.50;83.30;;;;;;5033382;28;20087;-82
2023/07/16 09:10:44;;;;;;;9.95;4.30;;;21.50;83.20;;;;;;5033448;28;20041;-80
2023/07/16 09:13:10;;;;;;;10.10;4.45;;;21.50;83.50;;;;;;5015825;28;20115;-81
2023/07/16 09:15:37;;;;;;;9.80;4.00;;;21.50;82.70;;;;;;5033644;28;20042;-81
2023/07/16 09:18:03;;;;;;;10.75;4.30;;;21.60;82.10;;;;;;5015779;28;20120;-83
2023/07/16 09:20:32;;;;;;;9.90;4.13;;;21.70;82.30;;;;;;5033617;28;20029;-83
2023/07/16 09:22:58;;;;;;;10.25;4.45;;;21.70;81.30;;;;;;5033227;28;20034;-82
2023/07/16 09:25:30;;;;;;;9.70;4.50;;;21.70;81.10;;;;;;5015663;28;20371;-81
2023/07/16 09:27:57;;;;;;;;;;;21.70;81.60;;;;;;5033543;28;20375;-82
2023/07/16 09:30:23;;;;;;;11.75;4.65;;;21.70;82.20;;;;;;5015662;28;19952;-81
2023/07/16 09:32:49;;;;;;;11.60;4.68;;;21.80;83.20;;;;;;5033710;28;20484;-82
2023/07/16 09:35:16;;;;;;;9.82;3.90;;;21.80;82.60;;;;;;5032900;28;20043;-80
2023/07/16 09:37:42;;;;;;;9.98;4.32;;;21.80;81.60;;;;;;5033339;28;20148;-82
2023/07/16 09:40:10;;;;;;;8.15;4.22;;;21.70;82.20;;;;;;5015655;28;20041;-80
2023/07/16 09:42:41;;;;;;;8.95;4.10;;;21.60;82.10;;;;;;5015601;28;20034;-81
2023/07/16 09:45:18;;;;;;;8.98;4.15;;;21.50;82.20;;;;;;5033285;28;20112;-81
2023/07/16 09:47:44;;;;;;;10.50;3.90;;;21.30;82.50;;;;;;5033410;28;20037;-80
2023/07/16 09:50:11;;;;;;;7.40;3.58;;;21.20;83.10;;;;;;5015596;28;20033;-82
2023/07/16 09:52:37;;;;;;;8.43;3.90;;;21.10;82.40;;;;;;5015716;28;20048;-81
2023/07/16 09:55:04;;;;;;;10.27;4.00;;;21.10;83.20;;;;;;5032775;28;20474;-80
2023/07/16 09:57:36;;;;;;;10.02;3.95;;;21.10;83.60;;;;;;5033196;28;20057;-82
2023/07/16 10:00:11;;;;;;;10.45;3.97;;;21.10;83.00;;;;;;5033696;28;20183;-82
2023/07/16 10:02:37;;;;;;;10.68;4.32;;;21.10;82.70;;;;;;5016684;28;20064;-80
2023/07/16 10:05:13;;;;;;;7.43;3.85;;;21.00;82.80;;;;;;5018319;28;20500;-81
2023/07/16 10:07:40;;;;;;;9.73;3.88;;;21.10;83.70;;;;;;5037025;28;20040;-83
2023/07/16 10:10:10;;;;;;;6.97;3.85;;;21.20;83.80;;;;;;5036840;28;20086;-80
2023/07/16 10:12:37;;;;;;;7.90;3.78;;;21.30;83.50;;;;;;5037049;28;20072;-81
2023/07/16 10:15:05;;;;;;;11.57;4.30;;;21.40;83.40;;;;;;5036954;28;20033;-81
2023/07/16 10:17:32;;;;;;;7.57;3.63;;;21.50;83.80;;;;;;5019382;28;20025;-82
2023/07/16 10:20:12;;;;;;;8.15;3.92;;;21.50;83.60;;;;;;5018858;28;20034;-80
2023/07/16 10:22:40;;;;;;;7.53;4.00;;;21.60;82.60;;;;;;5018893;28;20029;-80
2023/07/16 10:25:09;;;;;;;6.22;3.60;;;21.70;83.90;;;;;;5036894;28;20146;-80
2023/07/16 10:27:35;;;;;;;8.55;4.10;;;21.80;82.50;;;;;;5036781;28;20051;-80
2023/07/16 10:30:04;;;;;;;8.98;3.97;;;21.80;82.10;;;;;;5036440;28;20040;-80
2023/07/16 10:32:31;;;;;;;6.65;3.67;;;21.70;81.90;;;;;;5036835;28;20104;-79
2023/07/16 10:34:58;;;;;;;6.88;3.47;;;21.70;82.70;;;;;;5036219;28;20053;-81
2023/07/16 10:37:25;;;;;;;5.07;3.00;;;21.70;83.20;;;;;;5036168;28;20474;-82
2023/07/16 10:39:52;;;;;;;9.32;3.78;;;21.60;81.80;;;;;;5036360;28;20026;-81
2023/07/16 10:42:19;;;;;;;9.65;3.90;;;21.60;82.00;;;;;;5036150;28;20029;-82
2023/07/16 10:44:48;;;;;;;8.40;3.22;;;21.50;81.10;;;;;;5037028;28;20458;-80
2023/07/16 10:47:24;;;;;;;7.43;3.08;;;21.50;81.40;;;;;;5036126;28;20092;-79
2023/07/16 10:49:54;;;;;;;6.30;3.38;;;21.40;82.00;;;;;;5035999;28;20029;-80
2023/07/16 10:52:24;;;;;;;11.13;3.70;;;21.40;82.70;;;;;;5035941;28;20018;-83
2023/07/16 10:54:54;;;;;;;11.40;3.63;;;21.40;82.40;;;;;;5035552;28;20116;-79
2023/07/16 10:57:21;;;;;;;8.18;3.67;;;21.50;82.60;;;;;;5036130;28;20021;-79
2023/07/16 10:59:48;;;;;;;11.90;3.58;;;21.50;82.80;;;;;;5036027;28;20053;-80
2023/07/16 11:02:15;;;;;;;9.85;3.60;;;21.60;82.90;;;;;;5035779;28;20033;-79
2023/07/16 11:04:42;;;;;;;7.90;3.47;;;21.60;82.80;;;;;;5035851;28;20121;-80
2023/07/16 11:07:09;;;;;;;8.82;3.83;;;21.60;82.80;;;;;;5018474;28;20026;-82
2023/07/16 11:09:44;;;;;;;8.88;3.40;;;21.60;81.60;;;;;;5035545;28;20087;-80
2023/07/16 11:12:12;;;;;;;7.07;3.20;;;21.50;81.40;;;;;;5035917;28;20033;-80
2023/07/16 11:14:39;;;;;;;9.77;3.88;;;21.50;82.40;;;;;;5017669;28;20037;-79
2023/07/16 11:17:08;;;;;;;9.07;3.78;;;21.50;82.80;;;;;;5035768;28;20034;-80
2023/07/16 11:19:36;;;;;;;8.93;3.78;;;21.50;83.00;;;;;;5035638;28;20175;-81
2023/07/16 11:22:04;;;;;;;7.93;3.72;;;21.50;82.20;;;;;;5035457;28;20025;-81
2023/07/16 11:24:38;;;;;;;5.93;3.60;;;21.40;81.90;;;;;;5035387;28;20041;-80
2023/07/16 11:27:04;;;;;;;9.93;3.92;;;21.40;82.90;;;;;;5017636;28;20111;-81
2023/07/16 11:29:36;;;;;;;6.38;3.40;;;21.40;83.30;;;;;;5035711;28;20442;-79
2023/07/16 11:32:02;;;;;;;8.07;3.92;;;21.40;82.50;;;;;;5035151;28;20095;-82
2023/07/16 11:34:28;;;;;;;6.80;3.28;;;21.40;82.90;;;;;;5017062;28;20389;-80
2023/07/16 11:36:53;;;;;;;7.82;3.22;;;21.40;82.90;;;;;;5017118;28;20060;-80
2023/07/16 11:39:20;;;;;;;6.00;3.65;;;21.40;83.00;;;;;;5035528;28;20033;-79
2023/07/16 11:41:58;;;;;;;7.40;3.35;;;21.50;83.30;;;;;;5034707;28;20025;-80
2023/07/16 11:44:23;;;;;;;10.90;4.50;;;21.60;83.30;;;;;;5035167;28;20029;-81
2023/07/16 11:46:50;;;;;;;7.78;3.60;;;21.70;83.00;;;;;;5017221;28;20041;-78
2023/07/16 11:49:16;;;;;;;7.78;3.25;;;21.60;82.80;;;;;;5035287;28;20033;-80
2023/07/16 11:51:44;;;;;;;6.20;3.30;;;21.50;82.40;;;;;;5035026;28;20419;-80
2023/07/16 11:54:10;;;;;;;7.97;3.60;;;21.50;82.10;;;;;;5034503;28;20036;-81
2023/07/16 11:56:36;;;;;;;10.27;3.88;;;21.40;83.20;;;;;;5034779;28;20033;-79
2023/07/16 11:59:01;;;;;;;8.30;3.63;;;21.30;83.80;;;;;;5034674;28;20036;-80
2023/07/16 12:01:27;;;;;;;6.78;3.67;;;21.10;85.10;;;;;;5034396;28;20493;-80
2023/07/16 12:03:52;;;;;;;8.52;3.65;;;21.10;85.80;;;;;;5034497;28;20060;-79
2023/07/16 12:06:18;;;;;;;6.80;3.80;;;21.20;86.40;;;;;;5034458;28;20053;-79
2023/07/16 12:08:44;;;;;;;6.63;3.38;;;21.30;86.20;;;;;;5034491;28;20104;-80
2023/07/16 12:11:09;;;;;;;9.32;3.80;;;21.50;85.40;;;;;;5034568;28;20025;-79
2023/07/16 12:13:35;;;;;;;6.38;3.10;;;21.60;85.20;;;;;;5016404;28;20037;-79
2023/07/16 12:16:01;;;;;;;10.88;4.50;;;21.70;85.10;;;;;;5034579;28;20064;-80
2023/07/16 12:18:26;;;;;;;7.88;3.50;;;21.70;84.10;;;;;;5000529;28;20462;-81
2023/07/16 12:20:52;;;;;;;8.73;3.88;;;21.70;84.60;;;;;;5034528;28;20064;-80
2023/07/16 12:23:18;;;;;;;6.78;3.72;;;21.70;83.70;;;;;;5000438;28;20394;-80
2023/07/16 12:25:43;;;;;;;6.85;3.67;;;21.60;84.60;;;;;;5033911;28;20026;-79
2023/07/16 12:28:09;;;;;;;8.30;3.88;;;21.60;84.90;;;;;;5033429;28;20036;-79
2023/07/16 12:30:35;;;;;;;5.88;3.50;;;21.60;84.60;;;;;;5034303;28;20033;-80
2023/07/16 12:33:01;;;;;;;9.82;4.10;;;21.60;84.70;;;;;;5034149;28;20028;-81
2023/07/16 12:35:26;;;;;;;8.50;3.40;;;21.60;84.30;;;;;;5033713;28;20120;-80
2023/07/16 12:37:52;;;;;;;8.38;4.18;;;21.70;84.20;;;;;;5033917;28;20032;-79
2023/07/16 12:40:18;;;;;;;6.53;3.45;;;21.80;84.40;;;;;;5016407;28;20034;-81
2023/07/16 12:42:44;;;;;;;8.98;3.45;;;22.00;84.10;;;;;;5034036;28;20460;-80